createdAt,value
2017-10-23T00:00:27.668Z,9.80
2017-10-23T00:02:56.683Z,9.70
2017-10-23T00:05:25.688Z,9.70
2017-10-23T00:07:53.990Z,9.70
2017-10-23T00:10:22.234Z,9.70
2017-10-23T00:12:51.273Z,9.70
2017-10-23T00:15:19.559Z,9.70
2017-10-23T00:17:47.815Z,9.70
2017-10-23T00:20:16.054Z,9.70
2017-10-23T00:22:44.403Z,9.60
2017-10-23T00:25:12.682Z,9.60
2017-10-23T00:27:40.928Z,9.60
2017-10-23T00:30:09.955Z,9.50
2017-10-23T00:32:38.206Z,9.50
2017-10-23T00:35:07.212Z,9.50
2017-10-23T00:37:36.226Z,9.50
2017-10-23T00:40:04.514Z,9.50
2017-10-23T00:42:33.067Z,9.50
2017-10-23T00:45:01.278Z,9.50
2017-10-23T00:47:29.541Z,9.50
2017-10-23T00:49:57.779Z,9.50
2017-10-23T00:52:26.030Z,9.60
2017-10-23T00:54:54.270Z,9.60
2017-10-23T00:57:23.293Z,9.60
2017-10-23T00:59:51.582Z,9.60
2017-10-23T01:02:19.931Z,9.60
2017-10-23T01:04:48.934Z,9.60
2017-10-23T01:07:17.966Z,9.60
2017-10-23T01:09:46.243Z,9.60
2017-10-23T01:12:14.659Z,9.70
2017-10-23T01:14:42.896Z,9.60
2017-10-23T01:17:11.182Z,9.70
2017-10-23T01:19:39.427Z,9.70
2017-10-23T01:22:08.442Z,9.70
2017-10-23T01:24:36.739Z,9.70
2017-10-23T01:27:04.996Z,9.70
2017-10-23T01:29:33.994Z,9.70
2017-10-23T01:32:03.017Z,9.60
2017-10-23T01:34:31.263Z,9.60
2017-10-23T01:37:00.315Z,9.60
2017-10-23T01:39:28.540Z,9.60
2017-10-23T01:41:57.558Z,9.60
2017-10-23T01:44:25.787Z,9.60
2017-10-23T01:46:54.054Z,9.60
2017-10-23T01:49:22.328Z,9.50
2017-10-23T01:51:50.610Z,9.40
2017-10-23T01:54:18.874Z,9.50
2017-10-23T01:56:47.106Z,9.40
2017-10-23T01:59:15.374Z,9.40
2017-10-23T02:01:43.635Z,9.40
2017-10-23T02:04:12.045Z,9.40
2017-10-23T02:06:40.254Z,9.40
2017-10-23T02:09:09.416Z,9.50
2017-10-23T02:11:37.656Z,9.50
2017-10-23T02:14:05.936Z,9.50
2017-10-23T02:16:34.930Z,9.50
2017-10-23T02:19:03.237Z,9.50
2017-10-23T02:21:31.474Z,9.50
2017-10-23T02:23:59.807Z,9.50
2017-10-23T02:26:28.046Z,9.50
2017-10-23T02:28:57.055Z,9.50
2017-10-23T02:31:25.372Z,9.50
2017-10-23T02:33:53.703Z,9.50
2017-10-23T02:36:22.027Z,9.60
2017-10-23T02:38:50.325Z,9.60
2017-10-23T02:41:18.591Z,9.60
2017-10-23T02:43:46.842Z,9.60
2017-10-23T02:46:15.886Z,9.60
2017-10-23T02:48:44.147Z,9.60
2017-10-23T02:51:12.430Z,9.60
2017-10-23T02:53:41.683Z,9.60
2017-10-23T02:56:10.024Z,9.60
2017-10-23T02:58:38.270Z,9.50
2017-10-23T03:01:06.572Z,9.50
2017-10-23T03:03:34.824Z,9.40
2017-10-23T03:06:03.858Z,9.40
2017-10-23T03:08:32.143Z,9.40
2017-10-23T03:11:00.384Z,9.50
2017-10-23T03:13:29.408Z,9.50
2017-10-23T03:15:57.659Z,9.50
2017-10-23T03:18:26.687Z,9.50
2017-10-23T03:20:54.979Z,9.50
2017-10-23T03:23:23.255Z,9.50
2017-10-23T03:25:51.531Z,9.50
2017-10-23T03:28:19.783Z,9.50
2017-10-23T03:30:48.784Z,9.50
2017-10-23T03:33:17.803Z,9.50
2017-10-23T03:35:46.037Z,9.50
2017-10-23T03:38:14.299Z,9.50
2017-10-23T03:40:43.334Z,9.60
2017-10-23T03:43:12.358Z,9.60
2017-10-23T03:45:40.605Z,9.60
2017-10-23T03:48:09.630Z,9.50
2017-10-23T03:50:37.930Z,9.50
2017-10-23T03:53:06.208Z,9.60
2017-10-23T03:55:34.490Z,9.60
2017-10-23T03:58:02.771Z,9.70
2017-10-23T04:00:31.027Z,9.60
2017-10-23T04:02:59.282Z,9.60
2017-10-23T04:05:27.514Z,9.70
2017-10-23T04:07:55.795Z,9.70
2017-10-23T04:10:24.035Z,9.60
2017-10-23T04:12:53.055Z,9.50
2017-10-23T04:15:21.292Z,9.50
2017-10-23T04:17:49.553Z,9.50
2017-10-23T04:20:17.790Z,9.40
2017-10-23T04:22:46.056Z,9.50
2017-10-23T04:25:15.103Z,9.50
2017-10-23T04:27:43.367Z,9.50
2017-10-23T04:30:11.707Z,9.40
2017-10-23T04:32:40.022Z,9.30
2017-10-23T04:35:08.316Z,9.20
2017-10-23T04:37:36.592Z,9.20
2017-10-23T04:40:04.824Z,9.20
2017-10-23T04:42:33.150Z,9.30
2017-10-23T04:45:01.392Z,9.30
2017-10-23T04:47:30.431Z,9.50
2017-10-23T04:49:58.686Z,9.40
2017-10-23T04:52:26.927Z,9.50
2017-10-23T04:54:55.195Z,9.50
2017-10-23T04:57:23.431Z,9.50
2017-10-23T04:59:51.707Z,9.50
2017-10-23T05:02:20.019Z,9.60
2017-10-23T05:04:48.263Z,9.60
2017-10-23T05:07:17.299Z,9.70
2017-10-23T05:09:45.547Z,9.70
2017-10-23T05:12:14.575Z,9.60
2017-10-23T05:14:42.832Z,9.60
2017-10-23T05:17:11.149Z,9.70
2017-10-23T05:19:39.414Z,9.60
2017-10-23T05:22:07.659Z,9.60
2017-10-23T05:24:36.702Z,9.60
2017-10-23T05:27:04.978Z,9.60
2017-10-23T05:29:33.261Z,9.60
2017-10-23T05:32:01.661Z,9.60
2017-10-23T05:34:30.234Z,9.70
2017-10-23T05:36:58.480Z,9.60
2017-10-23T05:39:27.506Z,9.70
2017-10-23T05:41:55.753Z,9.70
2017-10-23T05:44:24.799Z,9.60
2017-10-23T05:46:53.808Z,9.50
2017-10-23T05:49:22.071Z,9.50
2017-10-23T05:51:50.355Z,9.50
2017-10-23T05:54:18.613Z,9.50
2017-10-23T05:56:46.850Z,9.50
2017-10-23T05:59:15.103Z,9.60
2017-10-23T06:01:43.388Z,9.60
2017-10-23T06:04:11.633Z,9.50
2017-10-23T06:06:40.657Z,9.50
2017-10-23T06:09:08.906Z,9.50
2017-10-23T06:11:37.944Z,9.60
2017-10-23T06:14:06.258Z,9.60
2017-10-23T06:16:34.495Z,9.60
2017-10-23T06:19:02.747Z,9.60
2017-10-23T06:21:31.758Z,9.70
2017-10-23T06:24:00.009Z,9.70
2017-10-23T06:26:28.250Z,9.70
2017-10-23T06:28:56.503Z,9.60
2017-10-23T06:31:24.807Z,9.60
2017-10-23T06:33:53.090Z,9.70
2017-10-23T06:36:21.340Z,9.60
2017-10-23T06:38:50.346Z,9.60
2017-10-23T06:41:18.603Z,9.60
2017-10-23T06:43:47.614Z,9.80
2017-10-23T06:46:15.908Z,9.80
2017-10-23T06:48:44.190Z,9.90
2017-10-23T06:51:12.494Z,9.90
2017-10-23T06:53:40.739Z,9.80
2017-10-23T06:56:09.035Z,9.90
2017-10-23T06:58:37.284Z,9.80
2017-10-23T07:01:06.329Z,9.70
2017-10-23T07:03:34.572Z,9.70
2017-10-23T07:06:02.875Z,9.70
2017-10-23T07:08:31.154Z,9.80
2017-10-23T07:10:59.456Z,9.80
2017-10-23T07:13:27.707Z,9.80
2017-10-23T07:15:55.943Z,9.80
2017-10-23T07:18:24.192Z,9.80
2017-10-23T07:20:52.459Z,9.70
2017-10-23T07:23:20.716Z,9.70
2017-10-23T07:25:49.738Z,9.60
2017-10-23T07:28:18.023Z,9.60
2017-10-23T07:30:46.265Z,9.60
2017-10-23T07:33:15.279Z,9.70
2017-10-23T07:35:43.588Z,9.70
2017-10-23T07:38:11.966Z,9.70
2017-10-23T07:40:40.218Z,9.80
2017-10-23T07:43:08.466Z,9.80
2017-10-23T07:45:37.489Z,9.80
2017-10-23T07:48:05.909Z,9.80
2017-10-23T07:50:34.933Z,9.90
2017-10-23T07:53:03.182Z,9.80
2017-10-23T07:55:31.458Z,9.90
2017-10-23T07:57:59.710Z,9.90
2017-10-23T08:00:28.731Z,10.00
2017-10-23T08:02:56.978Z,10.00
2017-10-23T08:05:26.011Z,10.00
2017-10-23T08:07:54.300Z,10.00
2017-10-23T08:10:22.562Z,10.10
2017-10-23T08:12:50.804Z,10.10
2017-10-23T08:15:19.063Z,10.10
2017-10-23T08:17:47.307Z,10.20
2017-10-23T08:20:15.602Z,10.30
2017-10-23T08:22:43.881Z,10.30
2017-10-23T08:25:12.138Z,10.40
2017-10-23T08:27:40.457Z,10.40
2017-10-23T08:30:08.827Z,10.50
2017-10-23T08:32:37.078Z,10.60
2017-10-23T08:35:06.105Z,10.70
2017-10-23T08:37:34.352Z,10.60
2017-10-23T08:40:03.418Z,10.70
2017-10-23T08:42:31.664Z,10.60
2017-10-23T08:44:59.943Z,10.70
2017-10-23T08:47:29.052Z,10.80
2017-10-23T08:49:57.311Z,10.90
2017-10-23T08:52:25.658Z,10.80
2017-10-23T08:54:53.923Z,10.90
2017-10-23T08:57:22.169Z,10.90
2017-10-23T08:59:50.458Z,11.00
2017-10-23T09:02:18.731Z,10.80
2017-10-23T09:04:46.992Z,10.90
2017-10-23T09:07:15.237Z,10.90
2017-10-23T09:09:43.517Z,11.00
2017-10-23T09:12:11.742Z,11.00
2017-10-23T09:14:40.031Z,11.00
2017-10-23T09:17:08.280Z,10.90
2017-10-23T09:19:37.303Z,11.00
2017-10-23T09:22:05.590Z,10.90
2017-10-23T09:24:33.860Z,11.00
2017-10-23T09:27:02.119Z,11.00
2017-10-23T09:29:31.149Z,11.30
2017-10-23T09:31:59.390Z,11.30
2017-10-23T09:34:28.421Z,11.40
2017-10-23T09:36:56.667Z,11.40
2017-10-23T09:39:24.929Z,11.50
2017-10-23T09:41:53.183Z,11.50
2017-10-23T09:44:21.471Z,11.50
2017-10-23T09:46:49.747Z,11.70
2017-10-23T09:49:18.006Z,11.80
2017-10-23T09:51:46.259Z,11.90
2017-10-23T09:54:15.295Z,12.10
2017-10-23T09:56:43.548Z,12.10
2017-10-23T09:59:12.680Z,12.40
2017-10-23T10:01:40.966Z,12.30
2017-10-23T10:04:09.250Z,12.40
2017-10-23T10:06:37.523Z,12.40
2017-10-23T10:09:05.787Z,12.60
2017-10-23T10:11:34.038Z,12.60
2017-10-23T10:14:03.095Z,12.60
2017-10-23T10:16:31.350Z,12.60
2017-10-23T10:18:59.592Z,12.80
2017-10-23T10:21:27.927Z,12.90
2017-10-23T10:23:56.212Z,12.90
2017-10-23T10:26:24.478Z,13.00
2017-10-23T10:28:52.727Z,12.90
2017-10-23T10:31:22.261Z,12.80
2017-10-23T10:33:50.504Z,12.80
2017-10-23T10:36:18.765Z,12.70
2017-10-23T10:38:47.012Z,12.80
2017-10-23T10:41:15.271Z,12.90
2017-10-23T10:43:44.297Z,12.80
2017-10-23T10:46:12.546Z,12.80
2017-10-23T10:48:40.872Z,12.70
2017-10-23T10:51:09.129Z,12.60
2017-10-23T10:53:37.376Z,12.60
2017-10-23T10:56:06.401Z,12.60
2017-10-23T10:58:34.642Z,12.60
2017-10-23T11:01:02.980Z,12.70
2017-10-23T11:03:31.264Z,12.70
2017-10-23T11:05:59.518Z,12.70
2017-10-23T11:08:27.781Z,12.60
2017-10-23T11:10:56.027Z,12.60
2017-10-23T11:13:24.288Z,12.50
2017-10-23T11:15:52.556Z,12.60
2017-10-23T11:18:20.801Z,12.60
2017-10-23T11:20:49.839Z,12.70
2017-10-23T11:23:18.106Z,12.60
2017-10-23T11:25:46.375Z,12.60
2017-10-23T11:28:15.380Z,12.90
2017-10-23T11:30:43.643Z,12.90
2017-10-23T11:33:12.654Z,12.90
2017-10-23T11:35:41.680Z,12.90
2017-10-23T11:38:09.968Z,12.90
2017-10-23T11:40:38.245Z,12.90
2017-10-23T11:43:06.492Z,12.90
2017-10-23T11:45:35.535Z,13.00
2017-10-23T11:48:03.806Z,12.90
2017-10-23T11:50:32.067Z,12.90
2017-10-23T11:53:00.528Z,13.00
2017-10-23T11:55:28.776Z,12.90
2017-10-23T11:57:57.027Z,13.10
2017-10-23T12:00:26.127Z,13.30
2017-10-23T12:02:54.471Z,13.30
2017-10-23T12:05:22.794Z,13.20
2017-10-23T12:07:51.033Z,13.20
2017-10-23T12:10:20.071Z,13.20
2017-10-23T12:12:48.311Z,13.10
2017-10-23T12:15:17.330Z,13.20
2017-10-23T12:17:45.647Z,13.20
2017-10-23T12:20:13.939Z,13.20
2017-10-23T12:22:42.296Z,13.20
2017-10-23T12:25:10.575Z,13.30
2017-10-23T12:27:38.868Z,13.50
2017-10-23T12:30:07.128Z,13.50
2017-10-23T12:32:35.380Z,13.60
2017-10-23T12:35:04.403Z,13.80
2017-10-23T12:37:32.647Z,13.70
2017-10-23T12:40:01.666Z,13.80
2017-10-23T12:42:30.678Z,13.70
2017-10-23T12:44:59.395Z,13.70
2017-10-23T12:47:27.666Z,13.70
2017-10-23T12:49:55.918Z,13.60
2017-10-23T12:52:24.926Z,13.60
2017-10-23T12:54:53.190Z,13.60
2017-10-23T12:57:22.203Z,13.50
2017-10-23T12:59:50.467Z,13.50
2017-10-23T13:02:19.514Z,13.50
2017-10-23T13:04:47.781Z,13.50
2017-10-23T13:07:16.088Z,13.50
2017-10-23T13:09:44.353Z,13.40
2017-10-23T13:12:12.613Z,13.30
2017-10-23T13:14:40.915Z,13.20
2017-10-23T13:17:09.199Z,13.20
2017-10-23T13:19:37.437Z,13.30
2017-10-23T13:22:06.464Z,13.20
2017-10-23T13:24:34.732Z,13.20
2017-10-23T13:27:03.751Z,13.30
2017-10-23T13:29:31.992Z,13.20
2017-10-23T13:32:01.015Z,13.10
2017-10-23T13:34:29.263Z,13.10
2017-10-23T13:36:57.601Z,13.10
2017-10-23T13:39:25.834Z,13.00
2017-10-23T13:41:54.863Z,13.00
2017-10-23T13:44:23.152Z,13.00
2017-10-23T13:46:51.415Z,13.00
2017-10-23T13:49:19.713Z,13.10
2017-10-23T13:51:47.991Z,13.10
2017-10-23T13:54:16.291Z,13.20
2017-10-23T13:56:44.553Z,13.20
2017-10-23T13:59:13.187Z,13.10
2017-10-23T14:01:41.444Z,13.00
2017-10-23T14:04:09.691Z,13.00
2017-10-23T14:06:37.988Z,13.10
2017-10-23T14:09:06.245Z,13.10
2017-10-23T14:11:34.501Z,13.20
2017-10-23T14:14:03.515Z,13.20
2017-10-23T14:16:31.780Z,13.20
2017-10-23T14:19:00.807Z,13.40
2017-10-23T14:21:29.100Z,13.30
2017-10-23T14:23:57.379Z,13.40
2017-10-23T14:26:25.630Z,13.30
2017-10-23T14:28:54.647Z,13.30
2017-10-23T14:31:22.940Z,13.30
2017-10-23T14:33:51.227Z,13.30
2017-10-23T14:36:19.495Z,13.20
2017-10-23T14:38:47.751Z,13.10
2017-10-23T14:41:16.027Z,13.20
2017-10-23T14:43:45.040Z,13.10
2017-10-23T14:46:13.337Z,13.00
2017-10-23T14:48:41.602Z,13.10
2017-10-23T14:51:09.897Z,13.10
2017-10-23T14:53:38.136Z,13.10
2017-10-23T14:56:07.170Z,13.10
2017-10-23T14:58:35.417Z,13.10
2017-10-23T15:01:04.452Z,13.00
2017-10-23T15:03:32.694Z,13.00
2017-10-23T15:06:01.734Z,13.00
2017-10-23T15:08:30.051Z,13.00
2017-10-23T15:10:58.393Z,13.00
2017-10-23T15:13:26.675Z,13.00
2017-10-23T15:15:54.943Z,13.00
2017-10-23T15:18:23.233Z,12.90
2017-10-23T15:20:51.488Z,13.00
2017-10-23T15:23:19.732Z,12.90
2017-10-23T15:25:48.182Z,12.90
2017-10-23T15:28:16.504Z,13.00
2017-10-23T15:30:46.271Z,12.90
2017-10-23T15:33:14.519Z,12.90
2017-10-23T15:35:43.555Z,12.90
2017-10-23T15:38:11.782Z,12.90
2017-10-23T15:40:40.841Z,12.90
2017-10-23T15:43:09.098Z,12.90
2017-10-23T15:45:37.391Z,12.90
2017-10-23T15:48:05.690Z,12.90
2017-10-23T15:50:33.938Z,13.00
2017-10-23T15:53:02.200Z,13.00
2017-10-23T15:55:31.207Z,12.90
2017-10-23T15:57:59.473Z,12.90
2017-10-23T16:00:28.481Z,13.00
2017-10-23T16:02:57.612Z,12.90
2017-10-23T16:05:25.911Z,12.80
2017-10-23T16:07:54.177Z,12.90
2017-10-23T16:10:22.423Z,12.90
2017-10-23T16:12:51.474Z,12.90
2017-10-23T16:15:19.731Z,12.80
2017-10-23T16:17:48.024Z,12.80
2017-10-23T16:20:16.265Z,12.80
2017-10-23T16:22:45.284Z,12.80
2017-10-23T16:25:13.579Z,12.80
2017-10-23T16:27:41.844Z,12.90
2017-10-23T16:30:10.146Z,12.90
2017-10-23T16:32:38.402Z,12.80
2017-10-23T16:35:06.642Z,12.80
2017-10-23T16:37:34.902Z,12.70
2017-10-23T16:40:03.153Z,12.80
2017-10-23T16:42:31.439Z,12.90
2017-10-23T16:44:59.745Z,12.90
2017-10-23T16:47:27.996Z,12.80
2017-10-23T16:49:57.349Z,12.60
2017-10-23T16:52:25.728Z,12.70
2017-10-23T16:54:54.010Z,12.70
2017-10-23T16:57:22.347Z,12.70
2017-10-23T16:59:50.590Z,12.70
2017-10-23T17:02:19.619Z,12.70
2017-10-23T17:04:47.886Z,12.70
2017-10-23T17:07:16.219Z,12.80
2017-10-23T17:09:44.486Z,12.80
2017-10-23T17:12:14.662Z,12.90
2017-10-23T17:14:43.717Z,12.80
2017-10-23T17:17:11.959Z,12.80
2017-10-23T17:19:40.270Z,12.80
2017-10-23T17:22:08.527Z,12.70
2017-10-23T17:24:36.839Z,12.60
2017-10-23T17:27:05.207Z,12.60
2017-10-23T17:29:34.319Z,12.70
2017-10-23T17:32:02.595Z,12.70
2017-10-23T17:34:30.854Z,12.80
2017-10-23T17:36:59.100Z,12.80
2017-10-23T17:39:27.375Z,12.80
2017-10-23T17:41:55.824Z,12.70
2017-10-23T17:44:24.081Z,12.70
2017-10-23T17:46:53.104Z,12.70
2017-10-23T17:49:21.669Z,12.70
2017-10-23T17:51:50.088Z,12.90
2017-10-23T17:54:18.528Z,12.90
2017-10-23T17:56:47.184Z,12.80
2017-10-23T17:59:15.668Z,12.80
2017-10-23T18:01:45.174Z,12.90
2017-10-23T18:04:14.544Z,12.80
2017-10-23T18:06:42.940Z,12.80
2017-10-23T18:09:11.553Z,12.80
2017-10-23T18:11:41.283Z,12.90
2017-10-23T18:14:09.791Z,12.90
2017-10-23T18:16:38.377Z,12.90
2017-10-23T18:19:06.897Z,12.90
2017-10-23T18:21:35.333Z,12.90
2017-10-23T18:24:04.099Z,12.90
2017-10-23T18:26:33.386Z,13.00
2017-10-23T18:29:02.711Z,13.00
2017-10-23T18:31:31.958Z,12.90
2017-10-23T18:34:00.501Z,12.90
2017-10-23T18:36:29.702Z,13.10
2017-10-23T18:38:58.180Z,13.10
2017-10-23T18:41:26.595Z,13.10
2017-10-23T18:43:54.980Z,13.10
2017-10-23T18:46:23.267Z,13.10
2017-10-23T18:48:52.271Z,13.00
2017-10-23T18:51:20.526Z,13.00
2017-10-23T18:53:49.543Z,13.00
2017-10-23T18:56:18.579Z,13.00
2017-10-23T18:58:46.831Z,13.00
2017-10-23T19:01:15.092Z,13.00
2017-10-23T19:03:44.106Z,13.00
2017-10-23T19:06:13.139Z,12.90
2017-10-23T19:08:41.415Z,12.90
2017-10-23T19:11:09.696Z,12.80
2017-10-23T19:13:37.941Z,12.80
2017-10-23T19:16:06.960Z,12.80
2017-10-23T19:18:35.255Z,12.80
2017-10-23T19:21:03.505Z,12.90
2017-10-23T19:23:31.984Z,12.90
2017-10-23T19:26:00.471Z,13.00
2017-10-23T19:28:28.938Z,12.90
2017-10-23T19:30:57.395Z,12.90
2017-10-23T19:33:26.453Z,12.80
2017-10-23T19:35:55.341Z,12.80
2017-10-23T19:38:23.897Z,12.90
2017-10-23T19:40:53.233Z,12.80
2017-10-23T19:43:21.678Z,12.80
2017-10-23T19:45:50.261Z,12.80
2017-10-23T19:48:18.845Z,12.90
2017-10-23T19:50:47.257Z,12.90
2017-10-23T19:53:16.528Z,12.90
2017-10-23T19:55:44.956Z,12.80
2017-10-23T19:58:13.442Z,12.80
2017-10-23T20:00:41.776Z,12.90
2017-10-23T20:03:10.030Z,12.90
2017-10-23T20:05:38.291Z,12.90
2017-10-23T20:08:06.589Z,12.90
2017-10-23T20:10:34.850Z,12.80
2017-10-23T20:13:03.086Z,12.80
2017-10-23T20:15:31.354Z,12.90
2017-10-23T20:17:59.614Z,12.90
2017-10-23T20:20:27.886Z,12.80
2017-10-23T20:22:56.194Z,12.70
2017-10-23T20:25:24.429Z,12.70
2017-10-23T20:27:52.691Z,12.80
2017-10-23T20:30:21.702Z,12.70
2017-10-23T20:32:49.963Z,12.70
2017-10-23T20:35:18.983Z,12.80
2017-10-23T20:37:47.407Z,12.80
2017-10-23T20:40:15.673Z,12.80
2017-10-23T20:42:43.950Z,12.90
2017-10-23T20:45:12.204Z,12.90
2017-10-23T20:47:41.228Z,12.90
2017-10-23T20:50:09.465Z,12.90
2017-10-23T20:52:38.482Z,13.00
2017-10-23T20:55:06.724Z,13.00
2017-10-23T20:57:35.003Z,13.00
2017-10-23T21:00:03.298Z,12.90
2017-10-23T21:02:31.551Z,12.90
2017-10-23T21:04:59.799Z,12.90
2017-10-23T21:07:28.092Z,13.00
2017-10-23T21:09:56.393Z,12.90
2017-10-23T21:12:25.320Z,13.00
2017-10-23T21:14:54.618Z,12.80
2017-10-23T21:17:23.230Z,12.80
2017-10-23T21:19:51.546Z,12.90
2017-10-23T21:22:20.117Z,13.00
2017-10-23T21:24:48.448Z,13.00
2017-10-23T21:27:16.949Z,13.00
2017-10-23T21:29:46.114Z,12.90
2017-10-23T21:32:14.740Z,12.80
2017-10-23T21:34:43.081Z,12.90
2017-10-23T21:37:11.360Z,12.90
2017-10-23T21:39:39.637Z,12.80
2017-10-23T21:42:07.888Z,12.60
2017-10-23T21:44:36.922Z,12.20
2017-10-23T21:47:12.067Z,12.20
2017-10-23T21:49:40.087Z,12.30
2017-10-23T21:52:08.420Z,12.40
2017-10-23T21:54:36.695Z,12.20
2017-10-23T21:57:04.937Z,12.30
2017-10-23T21:59:33.966Z,12.30
2017-10-23T22:02:02.263Z,12.30
2017-10-23T22:04:30.524Z,12.20
2017-10-23T22:06:58.829Z,12.00
2017-10-23T22:09:27.106Z,11.90
2017-10-23T22:11:55.389Z,11.90
2017-10-23T22:14:23.648Z,12.00
2017-10-23T22:16:51.896Z,12.00
2017-10-23T22:19:20.235Z,12.00
2017-10-23T22:21:48.483Z,11.90
2017-10-23T22:24:17.612Z,11.70
2017-10-23T22:26:45.895Z,11.70
2017-10-23T22:29:14.143Z,11.60
2017-10-23T22:31:43.163Z,11.50
2017-10-23T22:34:11.465Z,11.40
2017-10-23T22:36:39.733Z,11.50
2017-10-23T22:39:07.972Z,11.30
2017-10-23T22:41:37.023Z,11.20
2017-10-23T22:44:05.270Z,11.20
2017-10-23T22:46:34.299Z,11.10
2017-10-23T22:49:02.536Z,11.10
2017-10-23T22:51:31.579Z,11.20
2017-10-23T22:53:59.899Z,11.20
2017-10-23T22:56:28.132Z,11.10
2017-10-23T22:58:56.374Z,11.10
2017-10-23T23:01:25.422Z,11.40
2017-10-23T23:03:53.662Z,11.40
2017-10-23T23:06:22.692Z,11.50
2017-10-23T23:08:50.937Z,11.40
2017-10-23T23:11:19.989Z,11.50
2017-10-23T23:13:48.239Z,11.50
2017-10-23T23:16:16.545Z,11.40
2017-10-23T23:18:44.792Z,11.30
2017-10-23T23:21:13.961Z,11.30
2017-10-23T23:23:42.185Z,11.30
2017-10-23T23:26:10.459Z,11.30
2017-10-23T23:28:38.698Z,11.30
2017-10-23T23:31:06.959Z,11.30
2017-10-23T23:33:35.227Z,11.30
2017-10-23T23:36:03.491Z,11.20
2017-10-23T23:38:31.729Z,11.30
2017-10-23T23:40:59.989Z,11.20
2017-10-23T23:43:28.997Z,11.20
2017-10-23T23:45:57.953Z,11.20
2017-10-23T23:48:26.197Z,11.30
2017-10-23T23:50:55.244Z,11.00
2017-10-23T23:53:23.488Z,11.00
2017-10-23T23:55:52.510Z,11.00
2017-10-23T23:58:20.823Z,11.00
